Time;durP1;ratioP1;P1;durP2;ratioP2;P2;SDS_P1;SDS_P2;PMS_P1;PMS_P2;Temp;Humidity;BMP_temperature;BMP_pressure;BME280_temperature;BME280_humidity;BME280_pressure;Samples;Min_cycle;Max_cycle;Signal;HPM_P1;HPM_P2
2021/04/27 00:02:02;;;;;;;2.58;2.13;;;;;;;0.62;79.74;100995.97;3583360;40;20134;-47
2021/04/27 00:04:29;;;;;;;4.95;2.78;;;;;;;0.50;81.11;100994.31;3583299;40;20056;-47
2021/04/27 00:06:56;;;;;;;5.40;2.40;;;;;;;0.67;81.28;100990.47;3583528;40;20044;-47
2021/04/27 00:09:22;;;;;;;4.68;2.55;;;;;;;0.63;81.12;100993.53;3583165;40;20321;-49
2021/04/27 00:11:48;;;;;;;6.30;2.67;;;;;;;0.52;81.51;100991.06;3582914;40;20367;-47
2021/04/27 00:14:15;;;;;;;3.88;3.10;;;;;;;0.45;81.26;100990.59;3583755;40;20067;-48
2021/04/27 00:16:42;;;;;;;4.78;2.60;;;;;;;0.43;81.94;100989.63;3582969;40;20326;-48
2021/04/27 00:19:10;;;;;;;4.93;2.78;;;;;;;0.39;82.68;100991.81;3582718;40;20458;-47
2021/04/27 00:21:37;;;;;;;4.78;2.72;;;;;;;0.43;81.76;100994.66;3583501;40;20084;-47
2021/04/27 00:24:05;;;;;;;5.32;2.97;;;;;;;0.37;82.77;100989.19;3583482;40;20049;-50
2021/04/27 00:26:32;;;;;;;5.20;2.67;;;;;;;0.25;83.78;100988.31;3583125;40;20064;-48
2021/04/27 00:28:59;;;;;;;4.38;2.92;;;;;;;0.38;82.94;100988.44;3579963;40;20057;-48
2021/04/27 00:31:27;;;;;;;3.75;2.80;;;;;;;0.51;82.67;100992.69;3583799;40;20060;-50
2021/04/27 00:33:58;;;;;;;5.57;3.00;;;;;;;0.34;83.13;100983.94;3583390;40;20070;-48
2021/04/27 00:36:26;;;;;;;5.28;2.97;;;;;;;0.28;83.98;100988.53;3583411;40;20265;-47
2021/04/27 00:38:53;;;;;;;4.70;2.83;;;;;;;0.06;84.68;100976.06;3582814;40;20219;-52
2021/04/27 00:41:22;;;;;;;4.85;2.70;;;;;;;-0.06;85.40;100976.03;3583146;40;20041;-50
2021/04/27 00:43:48;;;;;;;4.35;2.88;;;;;;;-0.05;85.73;100975.28;3583373;40;20164;-48
2021/04/27 00:46:15;;;;;;;4.82;3.13;;;;;;;-0.10;86.49;100973.19;3583342;40;20160;-51
2021/04/27 00:48:41;;;;;;;6.45;3.15;;;;;;;-0.16;86.04;100973.63;3582680;40;20061;-46
2021/04/27 00:51:08;;;;;;;3.80;2.75;;;;;;;-0.16;85.35;100968.59;3582818;40;20054;-47
2021/04/27 00:53:35;;;;;;;4.00;2.53;;;;;;;-0.19;85.58;100968.34;3582271;40;20044;-52
2021/04/27 00:56:02;;;;;;;6.60;3.03;;;;;;;-0.26;87.05;100967.03;3582448;40;20417;-47
2021/04/27 00:58:31;;;;;;;8.48;3.10;;;;;;;-0.30;87.38;100969.22;3583002;40;20087;-47
2021/04/27 01:00:57;;;;;;;4.82;2.92;;;;;;;-0.03;86.78;100968.72;3578932;40;20044;-48
2021/04/27 01:03:24;;;;;;;4.85;3.00;;;;;;;-0.05;86.90;100970.25;3583049;40;20067;-48
2021/04/27 01:05:51;;;;;;;5.68;2.88;;;;;;;-0.13;87.08;100962.91;3582784;40;20076;-48
2021/04/27 01:08:31;;;;;;;7.18;3.65;;;;;;;-0.35;87.68;100960.47;3582430;40;20082;-50
2021/04/27 01:11:04;;;;;;;4.78;3.10;;;;;;;-0.34;88.11;100964.72;3578808;40;20076;-47
2021/04/27 01:13:51;;;;;;;7.05;3.03;;;;;;;-0.46;88.85;100964.72;3582886;40;20088;-48
2021/04/27 01:16:18;;;;;;;6.72;3.63;;;;;;;-0.40;88.60;100962.63;3582689;40;20145;-47
2021/04/27 01:18:50;;;;;;;6.43;3.20;;;;;;;-0.40;88.09;100962.63;3582355;40;20064;-49
2021/04/27 01:21:20;;;;;;;6.45;3.53;;;;;;;-0.42;88.21;100958.25;3583136;40;20100;-48
2021/04/27 01:24:04;;;;;;;5.10;3.47;;;;;;;-0.57;88.45;100958.88;3582619;40;20338;-47
2021/04/27 01:26:42;;;;;;;4.40;3.25;;;;;;;-0.65;89.21;100957.41;3582894;40;20051;-47
2021/04/27 01:29:12;;;;;;;7.25;3.53;;;;;;;-0.69;89.92;100955.47;3582304;40;20563;-49
2021/04/27 01:31:39;;;;;;;5.00;2.90;;;;;;;-0.65;88.89;100956.53;3583229;40;20349;-51
2021/04/27 01:34:07;;;;;;;5.28;3.00;;;;;;;-0.70;88.76;100950.31;3584419;40;20061;-49
2021/04/27 01:36:35;;;;;;;5.15;3.75;;;;;;;-0.41;88.61;100957.50;3583972;39;20264;-47
2021/04/27 01:39:04;;;;;;;5.60;3.00;;;;;;;-0.49;89.46;100956.94;3583707;39;20051;-50
2021/04/27 01:41:31;;;;;;;6.40;3.65;;;;;;;-0.42;89.58;100958.25;3584127;39;20103;-49
2021/04/27 01:43:58;;;;;;;6.07;3.00;;;;;;;-0.32;88.40;100956.53;3579796;39;20104;-47
2021/04/27 01:46:25;;;;;;;8.55;3.45;;;;;;;-0.20;87.69;100959.06;3584072;39;20336;-50
2021/04/27 01:48:54;;;;;;;10.38;4.10;;;;;;;-0.66;89.06;100952.28;3584074;39;20068;-47
2021/04/27 01:51:24;;;;;;;8.45;4.10;;;;;;;-0.45;88.99;100955.53;3584068;39;20428;-48
2021/04/27 01:53:52;;;;;;;8.07;3.53;;;;;;;-0.70;89.47;100952.81;3583789;39;20055;-50
2021/04/27 01:56:20;;;;;;;7.15;3.40;;;;;;;-0.69;89.40;100945.41;3584018;39;20082;-47
2021/04/27 01:58:48;;;;;;;7.22;3.03;;;;;;;-0.83;88.36;100941.88;3583686;39;20085;-49
2021/04/27 02:01:15;;;;;;;4.85;3.13;;;;;;;-1.03;90.63;100944.50;3583940;39;20137;-52
2021/04/27 02:03:47;;;;;;;7.25;3.78;;;;;;;-1.08;91.51;100943.28;3584106;39;20092;-54
2021/04/27 02:06:14;;;;;;;4.97;3.28;;;;;;;-1.04;91.97;100948.66;3583886;39;20080;-48
2021/04/27 02:09:04;;;;;;;7.05;3.53;;;;;;;-1.05;91.37;100944.38;3583799;39;20096;-47
2021/04/27 02:11:38;;;;;;;7.78;3.75;;;;;;;-1.08;92.26;100943.28;3583746;39;20045;-48
2021/04/27 02:14:07;;;;;;;5.97;3.20;;;;;;;-0.98;92.03;100948.22;3583793;39;20080;-47
2021/04/27 02:16:51;;;;;;;6.95;3.28;;;;;;;-0.93;89.82;100941.03;3583982;39;20051;-54
2021/04/27 02:19:23;;;;;;;7.30;3.75;;;;;;;-1.01;90.71;100943.00;3583716;39;20048;-49
2021/04/27 02:21:55;;;;;;;7.68;3.55;;;;;;;-0.95;90.99;100945.09;3583208;39;20055;-50
2021/04/27 02:24:23;;;;;;;7.05;3.70;;;;;;;-1.09;90.74;100937.38;3583900;39;20080;-51
2021/04/27 02:26:55;;;;;;;6.25;3.63;;;;;;;-0.95;91.03;100938.41;3582891;39;20099;-47
2021/04/27 02:29:23;;;;;;;4.85;2.97;;;;;;;-0.87;89.72;100936.50;3584116;39;20071;-51
2021/04/27 02:31:51;;;;;;;5.88;3.25;;;;;;;-0.95;89.81;100930.88;3583887;39;20080;-47
2021/04/27 02:34:21;;;;;;;5.72;3.10;;;;;;;-0.93;89.86;100929.34;3586551;39;20049;-47
2021/04/27 02:36:48;;;;;;;7.25;3.20;;;;;;;-0.69;89.71;100931.94;3584431;39;20057;-47
2021/04/27 02:39:16;;;;;;;5.32;3.35;;;;;;;-0.75;88.92;100931.47;3583981;39;20479;-50
2021/04/27 02:41:43;;;;;;;5.32;3.15;;;;;;;-0.45;88.11;100926.22;3583841;39;20089;-50
2021/04/27 02:44:11;;;;;;;4.88;2.85;;;;;;;-0.67;88.25;100922.88;3583787;39;20048;-47
2021/04/27 02:46:38;;;;;;;6.40;3.67;;;;;;;-0.67;87.19;100917.84;3583700;39;20358;-51
2021/04/27 02:49:05;;;;;;;5.93;3.45;;;;;;;-0.58;86.39;100921.91;3583892;39;20071;-51
2021/04/27 02:51:33;;;;;;;6.57;3.42;;;;;;;-0.66;85.88;100920.47;3583650;39;20052;-49
2021/04/27 02:54:00;;;;;;;8.25;3.05;;;;;;;-0.77;87.37;100916.28;3580518;39;20080;-47
2021/04/27 02:56:27;;;;;;;5.00;2.97;;;;;;;-0.48;85.38;100918.44;3584016;39;20096;-48
2021/04/27 02:58:54;;;;;;;5.75;3.05;;;;;;;-0.52;85.45;100918.97;3580248;39;20347;-50
2021/04/27 03:01:21;;;;;;;4.10;3.28;;;;;;;-0.32;83.75;100920.44;3584580;39;20490;-53
2021/04/27 03:03:48;;;;;;;8.18;2.97;;;;;;;-0.39;84.56;100913.19;3583831;39;20056;-50
2021/04/27 03:06:15;;;;;;;7.70;2.97;;;;;;;-0.69;85.41;100916.84;3584045;39;20100;-48
2021/04/27 03:08:41;;;;;;;5.30;2.95;;;;;;;-0.59;85.74;100924.31;3583715;39;20057;-49
2021/04/27 03:11:08;;;;;;;5.68;3.30;;;;;;;-0.74;85.04;100920.66;3583998;39;20048;-47
2021/04/27 03:13:35;;;;;;;5.75;3.28;;;;;;;-0.94;86.24;100917.53;3583620;39;20342;-51
2021/04/27 03:16:01;;;;;;;3.45;2.70;;;;;;;-0.84;86.32;100919.09;3584475;39;20060;-47
2021/04/27 03:18:28;;;;;;;6.55;3.08;;;;;;;-0.84;86.31;100909.91;3584259;39;20057;-51
2021/04/27 03:20:54;;;;;;;9.02;3.13;;;;;;;-0.88;86.37;100915.50;3583719;39;20087;-50
2021/04/27 03:23:22;;;;;;;5.80;3.20;;;;;;;-1.05;86.22;100914.22;3583336;39;20052;-51
2021/04/27 03:25:49;;;;;;;9.50;2.90;;;;;;;-0.92;86.70;100913.53;3583508;39;20141;-47
2021/04/27 03:28:16;;;;;;;5.78;3.05;;;;;;;-0.35;84.19;100920.22;3583244;39;20055;-49
2021/04/27 03:30:43;;;;;;;6.90;3.65;;;;;;;-0.75;84.96;100916.41;3583593;39;20606;-49
2021/04/27 03:33:10;;;;;;;4.95;2.70;;;;;;;-0.71;83.30;100913.34;3583967;39;20056;-51
2021/04/27 03:35:37;;;;;;;5.60;3.17;;;;;;;-0.81;84.10;100912.69;3583730;39;20055;-49
2021/04/27 03:38:03;;;;;;;6.95;3.45;;;;;;;-0.98;84.91;100908.03;3583970;39;20430;-50
2021/04/27 03:40:30;;;;;;;6.70;3.63;;;;;;;-0.95;84.45;100913.28;3584279;39;20373;-49
2021/04/27 03:42:56;;;;;;;6.80;3.30;;;;;;;-0.91;84.29;100901.81;3583357;39;20052;-51
2021/04/27 03:45:34;;;;;;;6.40;3.38;;;;;;;-1.03;84.29;100909.31;3583922;39;20334;-50
2021/04/27 03:48:10;;;;;;;6.38;3.80;;;;;;;-1.03;83.28;100914.34;3584091;39;20067;-48
2021/04/27 03:50:37;;;;;;;8.45;3.80;;;;;;;-1.10;83.93;100913.00;3583724;39;20051;-48
2021/04/27 03:53:04;;;;;;;5.28;3.40;;;;;;;-1.16;84.01;100914.16;3583785;39;20097;-52
2021/04/27 03:55:31;;;;;;;6.25;3.53;;;;;;;-1.14;84.41;100916.06;3583901;39;20342;-51
2021/04/27 03:57:58;;;;;;;5.03;3.50;;;;;;;-1.21;83.98;100907.94;3579871;39;20060;-48
2021/04/27 04:00:25;;;;;;;5.97;3.53;;;;;;;-1.16;84.32;100912.53;3583129;39;20051;-51
2021/04/27 04:02:52;;;;;;;6.25;3.70;;;;;;;-1.00;83.70;100908.69;3583366;39;20082;-50
2021/04/27 04:05:18;;;;;;;5.25;3.50;;;;;;;-1.22;84.43;100914.59;3583200;39;20537;-50
2021/04/27 04:07:45;;;;;;;5.28;3.42;;;;;;;-1.07;84.49;100917.38;3583167;39;20071;-52
2021/04/27 04:10:13;;;;;;;8.55;3.97;;;;;;;-1.16;84.50;100916.69;3582253;40;20063;-51
2021/04/27 04:12:42;;;;;;;6.90;3.38;;;;;;;-1.04;84.61;100922.66;3583196;39;20096;-47
2021/04/27 04:15:12;;;;;;;5.25;3.25;;;;;;;-1.06;84.45;100919.16;3583243;40;20096;-47
2021/04/27 04:17:39;;;;;;;6.88;3.50;;;;;;;-1.10;84.61;100927.22;3582938;40;20670;-53
2021/04/27 04:20:15;;;;;;;6.72;3.38;;;;;;;-0.62;83.28;100930.00;3582999;40;20076;-49
2021/04/27 04:22:45;;;;;;;5.38;3.55;;;;;;;-1.03;84.35;100924.38;3583024;39;20091;-47
2021/04/27 04:25:13;;;;;;;6.72;2.95;;;;;;;-0.92;84.91;100925.22;3576251;39;20081;-51
2021/04/27 04:27:40;;;;;;;7.05;3.50;;;;;;;-0.81;83.91;100929.41;3581836;39;20060;-47
2021/04/27 04:30:16;;;;;;;6.50;3.47;;;;;;;-0.93;83.89;100930.97;3582966;40;20357;-48
2021/04/27 04:32:43;;;;;;;6.45;3.72;;;;;;;-0.87;83.82;100922.28;3583045;40;20052;-51
2021/04/27 04:35:11;;;;;;;5.10;3.28;;;;;;;-0.61;83.08;100931.75;3583226;40;20345;-51
2021/04/27 04:37:38;;;;;;;5.38;3.47;;;;;;;-0.50;82.13;100924.13;3582485;40;20678;-48
2021/04/27 04:40:07;;;;;;;6.85;3.50;;;;;;;-0.40;81.99;100932.44;3583188;40;20096;-50
2021/04/27 04:42:34;;;;;;;10.43;3.72;;;;;;;-0.23;79.93;100932.78;3583009;40;20057;-49
2021/04/27 04:45:00;;;;;;;8.70;4.28;;;;;;;-0.29;78.82;100929.06;3583073;40;20048;-48
2021/04/27 04:47:27;;;;;;;5.82;3.60;;;;;;;0.08;78.43;100928.31;3582723;40;20064;-48
2021/04/27 04:49:53;;;;;;;6.82;3.67;;;;;;;-0.15;78.24;100930.06;3582856;40;20068;-51
2021/04/27 04:52:20;;;;;;;6.28;3.70;;;;;;;0.05;77.25;100928.09;3582603;40;20093;-47
2021/04/27 04:54:46;;;;;;;7.03;3.50;;;;;;;-0.13;78.12;100927.69;3582661;39;20089;-47
2021/04/27 04:57:14;;;;;;;8.00;3.80;;;;;;;-0.06;77.75;100932.38;3582659;40;20085;-49
2021/04/27 04:59:41;;;;;;;5.97;4.00;;;;;;;0.06;77.25;100930.75;3582744;40;20052;-49
2021/04/27 05:02:07;;;;;;;12.43;3.92;;;;;;;0.05;77.04;100931.50;3582941;40;20064;-50
2021/04/27 05:04:34;;;;;;;6.85;3.33;;;;;;;0.13;77.98;100932.91;3582795;40;20388;-47
2021/04/27 05:07:09;;;;;;;12.25;4.07;;;;;;;0.20;76.91;100940.16;3583637;40;20096;-49
2021/04/27 05:09:36;;;;;;;6.97;3.70;;;;;;;0.70;76.04;100940.28;3584045;40;20057;-50
2021/04/27 05:12:03;;;;;;;5.90;3.92;;;;;;;0.19;76.64;100937.53;3584936;40;20469;-50
2021/04/27 05:14:33;;;;;;;7.97;3.60;;;;;;;0.43;75.09;100929.16;3584373;39;20044;-51
2021/04/27 05:16:59;;;;;;;7.80;3.78;;;;;;;0.41;75.16;100933.22;3580143;40;20089;-52
2021/04/27 05:19:26;;;;;;;8.75;4.03;;;;;;;0.74;74.41;100934.69;3584320;40;20152;-47
2021/04/27 05:21:53;;;;;;;6.90;3.60;;;;;;;0.72;75.22;100930.31;3583864;39;20119;-48
2021/04/27 05:24:21;;;;;;;5.22;3.42;;;;;;;0.77;75.30;100937.41;3579054;39;20089;-49
2021/04/27 05:26:48;;;;;;;7.55;3.75;;;;;;;0.91;72.67;100935.81;3580365;39;20044;-50
2021/04/27 05:29:18;;;;;;;5.40;3.22;;;;;;;1.08;71.31;100939.50;3615094;23;20067;-54
2021/04/27 05:31:47;;;;;;;5.28;3.35;;;;;;;1.32;70.01;100939.38;3573444;40;20048;-54
2021/04/27 05:34:14;;;;;;;6.68;3.25;;;;;;;1.50;70.74;100943.13;3573695;40;20064;-54
2021/04/27 05:36:41;;;;;;;5.03;3.03;;;;;;;1.40;70.25;100941.66;3573752;40;20404;-55
2021/04/27 05:39:09;;;;;;;4.32;3.25;;;;;;;1.76;68.77;100937.25;3573383;40;20065;-55
2021/04/27 05:41:36;;;;;;;4.47;3.15;;;;;;;1.46;68.62;100939.50;3570693;40;20057;-50
2021/04/27 05:44:03;;;;;;;3.50;2.47;;;;;;;1.58;68.49;100934.41;3573782;40;20061;-54
2021/04/27 05:46:36;;;;;;;6.22;3.08;;;;;;;1.87;67.26;100938.81;3568479;40;20097;-53
2021/04/27 05:49:03;;;;;;;6.13;3.17;;;;;;;2.13;65.33;100937.97;3570986;40;20065;-53
2021/04/27 05:51:30;;;;;;;6.20;2.95;;;;;;;2.32;64.54;100936.59;3573464;40;20041;-51
2021/04/27 05:53:57;;;;;;;3.90;2.65;;;;;;;2.48;63.46;100934.22;3573036;40;20110;-51
2021/04/27 05:56:23;;;;;;;4.32;2.90;;;;;;;2.75;62.46;100928.31;3567111;40;20517;-53
2021/04/27 05:58:50;;;;;;;5.00;2.65;;;;;;;3.05;61.58;100933.47;3570367;40;20069;-55
2021/04/27 06:01:18;;;;;;;5.13;3.20;;;;;;;3.31;61.37;100938.41;3572129;40;20397;-55
2021/04/27 06:03:45;;;;;;;5.88;2.65;;;;;;;3.47;60.49;100935.13;3572386;40;20056;-54
2021/04/27 06:06:11;;;;;;;3.33;2.15;;;;;;;3.98;58.47;100940.56;3573539;40;20522;-53
2021/04/27 06:08:38;;;;;;;4.00;2.28;;;;;;;3.89;58.01;100935.84;3573080;40;20077;-53
2021/04/27 06:11:06;;;;;;;5.20;2.70;;;;;;;3.98;58.51;100936.34;3573132;40;20068;-56
2021/04/27 06:13:34;;;;;;;3.63;2.35;;;;;;;4.24;57.74;100935.25;3568678;40;20117;-55
2021/04/27 06:16:02;;;;;;;3.70;2.38;;;;;;;4.47;56.55;100930.56;3570473;40;20091;-53
2021/04/27 06:18:29;;;;;;;7.63;2.00;;;;;;;4.78;56.22;100943.22;3579092;40;20053;-53
2021/04/27 06:20:57;;;;;;;5.13;1.98;;;;;;;5.01;54.81;100936.81;3579656;40;20138;-54
2021/04/27 06:23:25;;;;;;;5.22;2.22;;;;;;;5.25;54.44;100938.06;3579287;40;20065;-55
2021/04/27 06:25:53;;;;;;;4.00;2.22;;;;;;;5.18;54.18;100942.75;3574277;40;20072;-54
2021/04/27 06:28:20;;;;;;;4.22;1.95;;;;;;;5.45;52.10;100940.72;3572927;40;20068;-55
2021/04/27 06:30:51;;;;;;;3.17;1.65;;;;;;;5.68;51.81;100939.31;3572839;40;20085;-53
2021/04/27 06:33:21;;;;;;;2.47;1.92;;;;;;;5.76;50.12;100943.13;3572038;40;20049;-53
2021/04/27 06:35:48;;;;;;;3.00;2.13;;;;;;;6.12;50.55;100941.53;3573006;40;20690;-55
2021/04/27 06:38:19;;;;;;;3.28;1.58;;;;;;;6.15;49.79;100945.84;3573173;40;20076;-52
2021/04/27 06:40:48;;;;;;;2.42;1.92;;;;;;;6.20;48.30;100947.84;3573051;40;20771;-51
2021/04/27 06:43:16;;;;;;;3.90;1.55;;;;;;;6.50;48.63;100948.38;3573284;40;20057;-50
2021/04/27 06:45:43;;;;;;;3.50;1.92;;;;;;;6.82;46.76;100951.53;3572488;40;20060;-53
2021/04/27 06:48:11;;;;;;;3.50;1.55;;;;;;;7.04;46.68;100949.13;3572856;40;20541;-50
2021/04/27 06:50:40;;;;;;;3.83;2.00;;;;;;;7.17;46.41;100950.56;3572678;40;20064;-54
2021/04/27 06:53:08;;;;;;;6.07;2.10;;;;;;;7.63;45.69;100950.84;3571434;40;20049;-53
2021/04/27 06:55:35;;;;;;;3.33;2.10;;;;;;;7.71;46.03;100950.25;3577155;40;20073;-54
2021/04/27 06:58:11;;;;;;;2.97;1.77;;;;;;;7.83;43.67;100945.69;3579358;40;20076;-50
2021/04/27 07:00:39;;;;;;;4.60;1.90;;;;;;;8.33;44.18;100954.47;3577029;40;20135;-55
2021/04/27 07:03:07;;;;;;;4.35;1.88;;;;;;;9.18;42.37;100959.38;3573000;40;20044;-53
2021/04/27 07:05:34;;;;;;;3.22;1.95;;;;;;;9.14;41.70;100954.97;3572816;40;20056;-57
2021/04/27 07:08:01;;;;;;;5.65;2.10;;;;;;;9.61;42.28;100946.41;3573267;40;20053;-56
2021/04/27 07:10:28;;;;;;;4.95;2.35;;;;;;;9.31;40.73;100951.31;3573243;40;20041;-55
2021/04/27 07:12:55;;;;;;;2.22;1.70;;;;;;;8.61;41.50;100949.63;3573145;40;20070;-55
2021/04/27 07:15:22;;;;;;;4.32;2.25;;;;;;;8.43;42.54;100940.41;3573053;40;20053;-55
2021/04/27 07:17:51;;;;;;;3.10;2.20;;;;;;;8.14;43.31;100955.44;3572231;40;20057;-56
2021/04/27 07:20:19;;;;;;;3.05;1.92;;;;;;;7.74;43.49;100951.25;3571717;40;20093;-55
2021/04/27 07:22:46;;;;;;;4.55;1.77;;;;;;;8.04;45.06;100944.00;3572581;40;20065;-57
2021/04/27 07:25:15;;;;;;;3.80;1.85;;;;;;;8.00;43.98;100949.78;3572433;40;20426;-55
2021/04/27 07:27:46;;;;;;;4.05;1.85;;;;;;;7.86;43.52;100940.72;3570553;40;20037;-53
2021/04/27 07:30:13;;;;;;;4.97;1.80;;;;;;;7.59;44.04;100948.09;3572130;40;20052;-55
2021/04/27 07:32:40;;;;;;;4.35;2.28;;;;;;;7.91;44.35;100946.88;3573131;40;20293;-57
2021/04/27 07:35:08;;;;;;;3.53;1.90;;;;;;;8.02;43.53;100944.72;3572942;40;20041;-55
2021/04/27 07:37:35;;;;;;;4.28;2.20;;;;;;;8.13;44.17;100938.38;3572645;40;20322;-54
2021/04/27 07:40:05;;;;;;;3.38;2.03;;;;;;;8.01;43.70;100936.22;3571266;40;20057;-51
2021/04/27 07:42:31;;;;;;;3.15;1.60;;;;;;;8.31;43.32;100939.09;3572581;40;20051;-55
2021/04/27 07:44:58;;;;;;;3.00;1.80;;;;;;;8.32;42.85;100939.94;3570067;40;20042;-54
2021/04/27 07:47:26;;;;;;;2.63;2.00;;;;;;;8.68;42.54;100935.41;3571000;40;20052;-56
2021/04/27 07:49:53;;;;;;;2.83;1.95;;;;;;;8.67;41.98;100942.19;3572497;40;20175;-55
2021/04/27 07:52:21;;;;;;;2.42;1.70;;;;;;;8.62;41.77;100942.84;3572302;40;20048;-57
2021/04/27 07:54:48;;;;;;;3.42;1.90;;;;;;;8.56;41.84;100940.06;3572011;40;20059;-52
2021/04/27 07:57:14;;;;;;;2.45;1.80;;;;;;;8.23;42.96;100939.59;3572439;40;20090;-56
2021/04/27 07:59:41;;;;;;;2.10;1.40;;;;;;;8.46;40.95;100935.41;3572308;40;20076;-53
2021/04/27 08:02:08;;;;;;;3.55;1.50;;;;;;;8.86;39.93;100938.63;3572647;40;20068;-53
2021/04/27 08:04:35;;;;;;;3.67;1.83;;;;;;;8.83;41.48;100937.69;3572475;40;20794;-56
2021/04/27 08:07:02;;;;;;;4.30;2.25;;;;;;;8.99;40.34;100939.09;3572733;40;20057;-48
2021/04/27 08:09:29;;;;;;;2.75;1.52;;;;;;;9.18;39.52;100933.81;3572399;40;20326;-51
2021/04/27 08:11:56;;;;;;;4.93;1.80;;;;;;;9.11;41.22;100942.09;3577468;40;20107;-54
2021/04/27 08:14:23;;;;;;;2.38;1.42;;;;;;;8.99;41.10;100927.19;3575663;40;20064;-49
2021/04/27 08:16:49;;;;;;;3.88;1.67;;;;;;;8.95;40.29;100934.69;3572361;40;20080;-56
2021/04/27 08:19:16;;;;;;;2.45;1.80;;;;;;;9.18;40.98;100926.16;3571873;40;20041;-52
2021/04/27 08:21:43;;;;;;;2.95;2.05;;;;;;;9.12;38.84;100926.81;3572102;40;20071;-56
2021/04/27 08:24:10;;;;;;;3.00;1.50;;;;;;;9.97;38.37;100915.16;3572070;40;20089;-54
2021/04/27 08:26:57;;;;;;;4.07;1.90;;;;;;;9.44;39.75;100922.81;3572858;40;20041;-49
2021/04/27 08:29:24;;;;;;;5.55;1.65;;;;;;;10.18;38.08;100922.66;3572377;40;20069;-57
2021/04/27 08:31:57;;;;;;;3.22;1.33;;;;;;;10.02;37.66;100928.09;3573475;40;20069;-52
2021/04/27 08:34:25;;;;;;;2.80;1.90;;;;;;;8.90;38.62;100917.50;3572709;40;20056;-52
2021/04/27 08:36:51;;;;;;;3.10;1.58;;;;;;;11.00;37.24;100920.78;3572851;40;20053;-53
2021/04/27 08:39:18;;;;;;;3.88;1.55;;;;;;;12.93;32.21;100921.13;3572700;40;20061;-57
2021/04/27 08:41:45;;;;;;;4.40;1.30;;;;;;;13.42;31.55;100920.38;3574113;40;20146;-51
2021/04/27 08:44:12;;;;;;;2.05;1.50;;;;;;;13.21;30.41;100922.50;3574261;40;20077;-55
2021/04/27 08:46:39;;;;;;;2.80;1.10;;;;;;;12.32;31.23;100915.56;3574268;40;20094;-57
2021/04/27 08:49:06;;;;;;;1.45;1.20;;;;;;;12.15;32.06;100910.03;3574134;40;20555;-49
2021/04/27 08:51:33;;;;;;;1.42;1.27;;;;;;;11.78;32.14;100918.53;3574795;40;20069;-52
2021/04/27 08:54:20;;;;;;;1.70;1.15;;;;;;;11.17;32.84;100912.72;3574112;40;20401;-53
2021/04/27 08:56:47;;;;;;;4.35;1.10;;;;;;;11.02;32.71;100919.16;3574200;40;20061;-55
2021/04/27 08:59:14;;;;;;;1.10;1.00;;;;;;;10.79;33.72;100898.88;3574105;40;20057;-52
2021/04/27 09:01:41;;;;;;;1.20;1.10;;;;;;;10.51;33.51;100904.03;3573613;40;20045;-51
2021/04/27 09:04:08;;;;;;;1.48;1.00;;;;;;;10.36;33.51;100905.31;3573833;40;20138;-51
2021/04/27 09:06:35;;;;;;;2.13;1.27;;;;;;;10.17;34.08;100893.63;3574042;40;20067;-54
2021/04/27 09:09:02;;;;;;;2.45;1.17;;;;;;;9.98;35.84;100896.41;3574262;40;20052;-48
2021/04/27 09:11:35;;;;;;;1.65;0.85;;;;;;;10.52;32.59;100892.97;3574132;40;20053;-53
2021/04/27 09:14:19;;;;;;;1.48;1.20;;;;;;;10.48;32.02;100894.56;3574624;40;20060;-53
2021/04/27 09:16:53;;;;;;;3.63;0.88;;;;;;;10.37;32.15;100888.28;3573978;40;20061;-49
2021/04/27 09:19:39;;;;;;;3.05;1.00;;;;;;;10.78;33.55;100892.03;3574644;40;20057;-54
2021/04/27 09:22:18;;;;;;;1.70;0.85;;;;;;;11.55;33.48;100889.75;3572397;40;20773;-50
2021/04/27 09:24:47;;;;;;;2.00;0.82;;;;;;;11.42;30.02;100885.19;3570378;40;20045;-53
2021/04/27 09:27:33;;;;;;;1.77;0.93;;;;;;;11.86;30.57;100891.41;3572033;40;20049;-51
2021/04/27 09:30:23;;;;;;;2.95;1.02;;;;;;;12.06;30.00;100885.88;3570980;40;20051;-53
2021/04/27 09:32:59;;;;;;;1.45;0.80;;;;;;;11.71;30.52;100879.06;3574059;40;20209;-52
2021/04/27 09:35:25;;;;;;;1.27;0.85;;;;;;;11.89;30.31;100875.25;3574407;40;20053;-55
2021/04/27 09:38:13;;;;;;;2.75;1.00;;;;;;;12.01;30.21;100878.06;3577477;40;21478;-54
2021/04/27 09:41:01;;;;;;;1.88;0.90;;;;;;;11.37;31.07;100879.94;3579873;40;20060;-54
2021/04/27 09:43:40;;;;;;;2.08;0.90;;;;;;;12.80;28.34;100870.31;3578566;40;20061;-53
2021/04/27 09:46:13;;;;;;;1.60;1.00;;;;;;;13.73;29.05;100867.72;3581021;40;20045;-54
2021/04/27 09:48:49;;;;;;;1.63;1.00;;;;;;;13.37;27.99;100865.41;3576917;40;20134;-49
2021/04/27 09:51:36;;;;;;;1.60;0.77;;;;;;;12.35;28.53;100864.28;3573577;40;20053;-48
2021/04/27 09:54:10;;;;;;;1.38;1.10;;;;;;;16.80;24.19;100867.22;3573930;40;20053;-53
2021/04/27 09:56:49;;;;;;;1.42;1.13;;;;;;;19.80;21.89;100870.69;3573778;40;20064;-54
2021/04/27 09:59:25;;;;;;;2.45;0.90;;;;;;;20.90;19.36;100876.38;3573997;40;20055;-52
2021/04/27 10:01:54;;;;;;;1.33;0.75;;;;;;;21.70;19.02;100876.03;3574324;40;20060;-49
2021/04/27 10:04:22;;;;;;;1.63;1.05;;;;;;;18.71;20.38;100855.00;3573637;40;20063;-54
2021/04/27 10:06:49;;;;;;;1.60;1.20;;;;;;;18.33;20.49;100856.00;3573745;40;20105;-55
2021/04/27 10:09:16;;;;;;;2.13;0.98;;;;;;;20.32;21.30;100864.94;3573544;40;20053;-55
2021/04/27 10:11:45;;;;;;;0.98;0.80;;;;;;;24.05;15.61;100864.81;3573859;40;20057;-58
2021/04/27 10:14:11;;;;;;;3.15;1.25;;;;;;;24.14;15.50;100867.16;3574361;40;20723;-53
2021/04/27 10:16:39;;;;;;;1.63;1.15;;;;;;;24.63;14.14;100861.41;3574002;40;20061;-51
2021/04/27 10:19:11;;;;;;;1.98;1.15;;;;;;;23.03;15.39;100855.16;3573745;40;20488;-53
2021/04/27 10:21:38;;;;;;;1.17;1.00;;;;;;;24.28;14.86;100853.69;3573508;40;20056;-52
2021/04/27 10:24:12;;;;;;;1.80;1.13;;;;;;;21.04;16.95;100835.38;3573663;40;20061;-49
2021/04/27 10:26:43;;;;;;;0.98;0.90;;;;;;;21.12;17.26;100836.09;3572798;40;20057;-50
2021/04/27 10:29:17;;;;;;;2.75;1.30;;;;;;;22.25;15.89;100831.56;3571885;40;20158;-52
2021/04/27 10:31:46;;;;;;;1.10;1.00;;;;;;;22.42;16.86;100825.13;3571703;40;20326;-52
2021/04/27 10:34:20;;;;;;;2.15;1.42;;;;;;;23.05;16.46;100830.69;3571805;40;20056;-53
2021/04/27 10:36:46;;;;;;;1.42;1.15;;;;;;;23.26;15.52;100839.78;3571810;40;20072;-52
2021/04/27 10:39:13;;;;;;;2.42;1.00;;;;;;;23.98;15.81;100835.31;3570015;40;20064;-53
2021/04/27 10:41:53;;;;;;;1.23;1.10;;;;;;;21.78;16.54;100824.63;3572340;40;20422;-53
2021/04/27 10:44:22;;;;;;;1.35;1.02;;;;;;;22.75;16.58;100826.16;3572629;40;20397;-52
2021/04/27 10:46:54;;;;;;;1.60;1.33;;;;;;;22.59;15.89;100818.66;3573490;40;20068;-51
2021/04/27 10:49:34;;;;;;;1.42;1.10;;;;;;;20.81;17.44;100799.28;3573785;40;20158;-49
2021/04/27 10:52:03;;;;;;;1.33;1.23;;;;;;;24.08;14.75;100817.59;3573565;40;20071;-54
2021/04/27 10:54:36;;;;;;;2.40;1.50;;;;;;;25.00;14.79;100817.50;3573957;40;20319;-53
2021/04/27 10:57:23;;;;;;;1.83;1.50;;;;;;;26.07;13.93;100825.25;3573164;40;20123;-53
2021/04/27 10:59:54;;;;;;;2.90;1.55;;;;;;;27.04;12.95;100817.16;3572806;40;20049;-52
2021/04/27 11:02:30;;;;;;;3.72;1.60;;;;;;;23.66;14.77;100804.81;3573473;40;20057;-50
2021/04/27 11:05:01;;;;;;;2.17;1.70;;;;;;;22.33;16.99;100802.72;3573655;40;20048;-51
2021/04/27 11:07:28;;;;;;;3.00;1.70;;;;;;;24.79;14.42;100798.09;3573565;40;20075;-50
2021/04/27 11:10:06;;;;;;;2.33;1.70;;;;;;;22.65;16.76;100785.47;3573034;40;20116;-53
2021/04/27 11:12:55;;;;;;;2.90;1.80;;;;;;;23.88;15.35;100792.00;3573378;40;20060;-51
2021/04/27 11:15:29;;;;;;;4.75;1.67;;;;;;;24.32;14.33;100795.97;3573947;40;20056;-47
2021/04/27 11:18:19;;;;;;;1.95;1.60;;;;;;;25.00;14.69;100784.28;3577280;40;20063;-50
2021/04/27 11:20:51;;;;;;;3.10;1.50;;;;;;;24.18;16.06;100781.59;3578660;40;20061;-54
2021/04/27 11:23:52;;;;;;;3.15;1.95;;;;;;;25.43;14.50;100777.66;3573891;40;20131;-51
2021/04/27 11:26:34;;;;;;;2.33;1.58;;;;;;;26.07;13.69;100775.38;3573241;40;20398;-50
2021/04/27 11:29:06;;;;;;;2.13;1.48;;;;;;;23.70;14.93;100771.59;3573260;40;20402;-55
2021/04/27 11:32:15;;;;;;;1.92;1.38;;;;;;;22.22;15.80;100765.53;3573399;40;20387;-54
2021/04/27 11:35:04;;;;;;;2.33;1.48;;;;;;;23.71;14.32;100763.72;3567681;40;20057;-50
2021/04/27 11:37:43;;;;;;;1.42;1.30;;;;;;;21.70;16.44;100748.31;3573404;40;20052;-53
2021/04/27 11:40:18;;;;;;;2.92;1.80;;;;;;;24.32;13.90;100751.47;3570175;40;20403;-52
2021/04/27 11:42:50;;;;;;;2.50;1.30;;;;;;;25.53;13.69;100758.06;3573671;40;20057;-49